Time;durP1;ratioP1;P1;durP2;ratioP2;P2;SDS_P1;SDS_P2;PMS_P1;PMS_P2;Temp;Humidity;BMP_temperature;BMP_pressure;BME280_temperature;BME280_humidity;BME280_pressure;Samples;Min_cycle;Max_cycle;Signal;HPM_P1;HPM_P2
2023/08/30 00:01:13;;;;;;;3.93;3.60;;;15.60;1.00;;;;;;5042840;28;20573;-80
2023/08/30 00:03:40;;;;;;;4.30;3.87;;;15.60;1.00;;;;;;5041386;28;20563;-80
2023/08/30 00:06:08;;;;;;;3.83;3.53;;;15.50;1.00;;;;;;5047505;28;20449;-80
2023/08/30 00:08:36;;;;;;;5.33;4.30;;;15.50;1.00;;;;;;5036086;28;20473;-80
2023/08/30 00:11:04;;;;;;;4.50;4.10;;;15.50;1.00;;;;;;5034098;28;20472;-80
2023/08/30 00:13:32;;;;;;;3.80;3.50;;;15.50;1.00;;;;;;5040922;28;21083;-79
2023/08/30 00:16:02;;;;;;;4.33;3.90;;;15.50;1.00;;;;;;5038934;28;20915;-80
2023/08/30 00:18:29;;;;;;;4.30;4.00;;;15.50;1.00;;;;;;5039759;28;20514;-81
2023/08/30 00:20:56;;;;;;;5.00;4.50;;;15.50;1.00;;;;;;5038805;28;20468;-79
2023/08/30 00:23:23;;;;;;;5.03;4.63;;;15.50;1.00;;;;;;5053548;28;20562;-80
2023/08/30 00:25:50;;;;;;;5.10;4.70;;;15.50;1.00;;;;;;5058465;28;20505;-79
2023/08/30 00:28:17;;;;;;;5.47;4.77;;;15.50;1.00;;;;;;5057309;28;20466;-78
2023/08/30 00:30:44;;;;;;;4.80;4.40;;;15.50;1.00;;;;;;5050848;28;20451;-80
2023/08/30 00:33:13;;;;;;;4.93;4.53;;;15.50;1.00;;;;;;5060644;28;20471;-79
2023/08/30 00:35:40;;;;;;;4.90;4.50;;;15.40;1.00;;;;;;5046429;28;20459;-78
2023/08/30 00:38:07;;;;;;;5.43;4.93;;;15.50;1.00;;;;;;5035562;28;20538;-80
2023/08/30 00:40:40;;;;;;;5.53;4.53;;;15.50;1.00;;;;;;5042940;28;20549;-80
2023/08/30 00:43:09;;;;;;;5.23;4.73;;;15.50;1.00;;;;;;5039267;28;20594;-81
2023/08/30 00:45:40;;;;;;;4.73;4.33;;;15.40;1.00;;;;;;5038049;28;21940;-80
2023/08/30 00:48:07;;;;;;;4.97;4.27;;;15.40;1.00;;;;;;5038018;28;20514;-80
2023/08/30 00:50:36;;;;;;;5.57;5.10;;;15.30;1.00;;;;;;5038673;28;20574;-80
2023/08/30 00:53:05;;;;;;;5.63;4.77;;;15.30;1.00;;;;;;5058765;28;20917;-80
2023/08/30 00:55:33;;;;;;;6.23;5.63;;;15.30;1.00;;;;;;5057995;28;20455;-80
2023/08/30 00:58:00;;;;;;;4.90;4.50;;;15.20;1.00;;;;;;5052033;28;21552;-80
2023/08/30 01:00:28;;;;;;;6.47;4.80;;;15.20;1.00;;;;;;5054271;28;20562;-76
2023/08/30 01:02:55;;;;;;;5.67;5.23;;;15.30;1.00;;;;;;5053225;27;23024;-76
2023/08/30 01:05:23;;;;;;;5.83;5.20;;;15.30;1.00;;;;;;5063378;28;20570;-75
2023/08/30 01:07:52;;;;;;;5.47;4.97;;;15.30;1.00;;;;;;5054824;28;20489;-76
2023/08/30 01:10:23;;;;;;;5.20;4.70;;;15.30;1.00;;;;;;5057729;28;20478;-77
2023/08/30 01:12:55;;;;;;;5.00;4.50;;;15.30;1.00;;;;;;5057845;28;20483;-78
2023/08/30 01:15:24;;;;;;;6.10;5.50;;;15.30;1.00;;;;;;5061329;27;20884;-77
2023/08/30 01:17:54;;;;;;;5.07;4.67;;;15.30;1.00;;;;;;5064275;27;20494;-78
2023/08/30 01:20:22;;;;;;;5.73;5.23;;;15.40;1.00;;;;;;5064680;28;20469;-77
2023/08/30 01:22:58;;;;;;;4.53;3.97;;;15.40;1.00;;;;;;5062720;28;20479;-78
2023/08/30 01:25:44;;;;;;;6.53;4.60;;;15.50;1.00;;;;;;5059458;28;21041;-78
2023/08/30 01:28:15;;;;;;;7.23;6.30;;;15.50;1.00;;;;;;5060733;28;20486;-78
2023/08/30 01:30:44;;;;;;;6.30;5.20;;;15.60;1.00;;;;;;5061259;28;20524;-78
2023/08/30 01:33:12;;;;;;;5.40;4.90;;;15.60;1.00;;;;;;5064840;28;20974;-78
2023/08/30 01:35:41;;;;;;;5.20;4.70;;;15.60;1.00;;;;;;5062605;27;20550;-77
2023/08/30 01:38:08;;;;;;;5.03;4.60;;;15.60;1.00;;;;;;5060969;28;20460;-78
2023/08/30 01:40:39;;;;;;;4.90;4.30;;;15.60;1.00;;;;;;5055279;28;20459;-78
2023/08/30 01:43:08;;;;;;;5.60;4.67;;;15.60;1.00;;;;;;5053160;28;20489;-79
2023/08/30 01:45:39;;;;;;;5.10;4.60;;;15.60;1.00;;;;;;5062520;28;20454;-78
2023/08/30 01:48:10;;;;;;;4.80;4.37;;;15.60;1.00;;;;;;5059495;28;20828;-78
2023/08/30 01:50:39;;;;;;;4.87;4.43;;;15.60;1.00;;;;;;5060544;27;20551;-78
2023/08/30 01:53:06;;;;;;;5.40;4.90;;;15.70;1.00;;;;;;5044668;28;20579;-79
2023/08/30 01:55:34;;;;;;;5.33;4.40;;;15.70;1.00;;;;;;5044391;28;20464;-77
2023/08/30 01:58:00;;;;;;;5.43;4.93;;;15.70;1.00;;;;;;5043570;28;20536;-78
2023/08/30 02:00:27;;;;;;;4.80;4.40;;;15.80;1.00;;;;;;5039358;28;21011;-77
2023/08/30 02:02:57;;;;;;;5.80;5.30;;;15.80;1.00;;;;;;5051078;28;20887;-78
2023/08/30 02:05:24;;;;;;;5.47;4.90;;;15.80;1.00;;;;;;5039258;28;20828;-77
2023/08/30 02:07:58;;;;;;;6.43;5.80;;;15.70;1.00;;;;;;5048664;28;20538;-76
2023/08/30 02:10:29;;;;;;;6.10;5.50;;;15.70;1.00;;;;;;5057045;28;20471;-77
2023/08/30 02:12:56;;;;;;;5.90;5.40;;;15.60;1.00;;;;;;5060038;27;22168;-76
2023/08/30 02:15:26;;;;;;;7.40;5.40;;;15.70;1.00;;;;;;5042341;28;20488;-77
2023/08/30 02:17:56;;;;;;;4.80;4.40;;;15.60;1.00;;;;;;5036824;28;20558;-78
2023/08/30 02:20:23;;;;;;;7.80;5.90;;;15.60;1.00;;;;;;5041121;28;20836;-77
2023/08/30 02:22:50;;;;;;;5.50;5.00;;;15.60;1.00;;;;;;5036870;28;21281;-77
2023/08/30 02:25:17;;;;;;;5.97;5.40;;;15.60;1.00;;;;;;5035576;28;20673;-77
2023/08/30 02:27:45;;;;;;;4.87;4.47;;;15.60;1.00;;;;;;5035887;28;20566;-79
2023/08/30 02:30:12;;;;;;;5.07;4.60;;;15.60;1.00;;;;;;5034960;28;20894;-78
2023/08/30 02:32:39;;;;;;;5.03;4.63;;;15.60;1.00;;;;;;5040343;28;20487;-78
2023/08/30 02:35:08;;;;;;;5.40;4.90;;;15.60;1.00;;;;;;5035617;28;20714;-77
2023/08/30 02:37:36;;;;;;;5.50;5.00;;;15.60;1.00;;;;;;5032005;28;20927;-79
2023/08/30 02:40:04;;;;;;;4.83;4.43;;;15.60;1.00;;;;;;5039120;28;20492;-78
2023/08/30 02:42:31;;;;;;;6.47;5.87;;;15.60;1.00;;;;;;5039930;28;20505;-77
2023/08/30 02:44:58;;;;;;;5.33;4.83;;;15.60;1.00;;;;;;5035953;28;21005;-77
2023/08/30 02:47:25;;;;;;;6.73;5.30;;;15.60;1.00;;;;;;5060438;28;20491;-78
2023/08/30 02:49:52;;;;;;;9.00;5.10;;;15.60;1.00;;;;;;5058184;28;20460;-78
2023/08/30 02:52:20;;;;;;;6.20;5.17;;;15.60;1.00;;;;;;5058140;28;20555;-77
2023/08/30 02:54:47;;;;;;;5.33;4.70;;;15.60;1.00;;;;;;5042749;28;20510;-78
2023/08/30 02:57:14;;;;;;;4.80;4.40;;;15.50;1.00;;;;;;5037556;28;20505;-78
2023/08/30 02:59:41;;;;;;;5.40;4.90;;;15.50;1.00;;;;;;5033289;28;20904;-79
2023/08/30 03:02:08;;;;;;;4.63;4.23;;;15.50;1.00;;;;;;5040034;28;20476;-78
2023/08/30 03:04:35;;;;;;;4.40;4.00;;;15.40;1.00;;;;;;5038459;28;20530;-77
2023/08/30 03:07:02;;;;;;;4.80;4.23;;;15.30;1.00;;;;;;5043629;28;22604;-77
2023/08/30 03:09:31;;;;;;;4.63;4.20;;;15.20;1.00;;;;;;5041231;28;20540;-78
2023/08/30 03:11:58;;;;;;;6.53;4.83;;;15.10;1.00;;;;;;5037938;28;20512;-77
2023/08/30 03:14:25;;;;;;;4.80;4.40;;;15.00;1.00;;;;;;5041235;28;20499;-79
2023/08/30 03:16:52;;;;;;;5.30;4.80;;;15.00;1.00;;;;;;5044427;28;20447;-79
2023/08/30 03:19:19;;;;;;;4.43;4.03;;;15.10;1.00;;;;;;5039738;28;20543;-76
2023/08/30 03:21:46;;;;;;;4.70;4.30;;;15.00;1.00;;;;;;5039537;28;20965;-77
2023/08/30 03:24:13;;;;;;;8.57;5.07;;;15.00;1.00;;;;;;5035151;28;20464;-76
2023/08/30 03:26:44;;;;;;;4.70;4.30;;;14.90;1.00;;;;;;5044156;28;20479;-76
2023/08/30 03:29:11;;;;;;;5.77;5.27;;;14.90;1.00;;;;;;5037933;28;20624;-79
2023/08/30 03:31:38;;;;;;;4.73;4.30;;;14.90;1.00;;;;;;5048684;28;20479;-77
2023/08/30 03:34:05;;;;;;;6.00;4.60;;;14.80;1.00;;;;;;5058482;28;20918;-76
2023/08/30 03:36:32;;;;;;;4.53;4.13;;;14.80;1.00;;;;;;5059354;28;20521;-76
2023/08/30 03:38:59;;;;;;;7.37;5.10;;;14.80;1.00;;;;;;5059192;28;20522;-78
2023/08/30 03:41:25;;;;;;;4.93;4.43;;;14.70;1.00;;;;;;5059188;28;20974;-77
2023/08/30 03:43:54;;;;;;;5.63;4.80;;;14.80;1.00;;;;;;5058698;27;20468;-76
2023/08/30 03:46:21;;;;;;;7.60;6.20;;;14.80;1.00;;;;;;5055381;28;20485;-78
2023/08/30 03:48:48;;;;;;;6.70;5.50;;;14.90;1.00;;;;;;5062891;27;20459;-78
2023/08/30 03:51:15;;;;;;;5.47;4.97;;;14.90;1.00;;;;;;5059098;28;20562;-77
2023/08/30 03:53:42;;;;;;;6.33;5.77;;;14.90;1.00;;;;;;5059366;27;20513;-78
2023/08/30 03:56:11;;;;;;;5.43;4.93;;;14.90;1.00;;;;;;5061195;28;20511;-77
2023/08/30 03:58:38;;;;;;;6.63;5.17;;;14.90;1.00;;;;;;5051176;28;20482;-77
2023/08/30 04:01:07;;;;;;;7.10;5.00;;;14.90;1.00;;;;;;5044569;28;20670;-77
2023/08/30 04:03:34;;;;;;;6.70;5.90;;;14.90;1.00;;;;;;5047497;28;20471;-78
2023/08/30 04:06:01;;;;;;;5.80;5.20;;;14.90;1.00;;;;;;5054828;28;20515;-78
2023/08/30 04:08:28;;;;;;;5.93;5.43;;;14.90;1.00;;;;;;5040927;28;20546;-76
2023/08/30 04:10:56;;;;;;;5.87;5.40;;;14.90;1.00;;;;;;5054054;28;20887;-77
2023/08/30 04:13:23;;;;;;;6.87;6.27;;;14.90;1.00;;;;;;5050924;28;20521;-76
2023/08/30 04:15:50;;;;;;;8.30;7.60;;;15.00;1.00;;;;;;5040998;28;20460;-76
2023/08/30 04:18:18;;;;;;;8.07;7.33;;;15.00;1.00;;;;;;5044346;28;20466;-77
2023/08/30 04:20:46;;;;;;;6.37;5.77;;;15.00;1.00;;;;;;5036909;28;20578;-76
2023/08/30 04:23:14;;;;;;;7.80;7.10;;;15.00;1.00;;;;;;5039640;28;20547;-77
2023/08/30 04:25:41;;;;;;;7.83;7.13;;;14.90;1.00;;;;;;5041920;28;20496;-78
2023/08/30 04:28:09;;;;;;;7.37;6.70;;;14.90;1.00;;;;;;5035974;28;20521;-79
2023/08/30 04:30:37;;;;;;;7.00;6.37;;;14.90;1.00;;;;;;5039139;28;20630;-76
2023/08/30 04:33:05;;;;;;;9.70;8.80;;;15.00;1.00;;;;;;5042424;28;20475;-76
2023/08/30 04:35:33;;;;;;;7.37;6.77;;;15.00;1.00;;;;;;5040115;28;20588;-76
2023/08/30 04:38:01;;;;;;;7.90;7.20;;;14.90;1.00;;;;;;5040612;28;20487;-78
2023/08/30 04:40:30;;;;;;;13.10;11.87;;;15.00;1.00;;;;;;5043285;28;20479;-77
2023/08/30 04:42:57;;;;;;;7.53;6.27;;;15.00;1.00;;;;;;5042510;28;20460;-77
2023/08/30 04:45:36;;;;;;;7.60;7.00;;;15.00;1.00;;;;;;5037778;28;20475;-80
2023/08/30 04:48:05;;;;;;;6.93;6.23;;;15.10;1.00;;;;;;5040156;27;20484;-77
2023/08/30 04:50:34;;;;;;;7.00;6.30;;;15.20;1.00;;;;;;5039013;28;20589;-77
2023/08/30 04:53:01;;;;;;;8.33;6.33;;;15.30;1.00;;;;;;5040958;28;20518;-77
2023/08/30 04:55:30;;;;;;;5.83;5.33;;;15.30;1.00;;;;;;5046263;28;21475;-77
2023/08/30 04:57:57;;;;;;;7.00;6.40;;;15.40;1.00;;;;;;5043075;28;20972;-77
2023/08/30 05:00:24;;;;;;;7.87;5.93;;;15.50;1.00;;;;;;5046189;28;20585;-76
2023/08/30 05:02:51;;;;;;;6.13;5.63;;;15.50;1.00;;;;;;5039812;28;20488;-76
2023/08/30 05:05:19;;;;;;;7.03;6.43;;;15.60;1.00;;;;;;5042613;28;20864;-77
2023/08/30 05:07:47;;;;;;;7.93;6.47;;;15.60;1.00;;;;;;5038936;28;21074;-78
2023/08/30 05:10:14;;;;;;;7.40;5.80;;;15.70;1.00;;;;;;5045053;28;20555;-77
2023/08/30 05:12:47;;;;;;;6.40;5.87;;;15.80;1.00;;;;;;5066772;27;20571;-79
2023/08/30 05:15:14;;;;;;;5.37;4.87;;;15.90;1.00;;;;;;5078401;27;20473;-78
2023/08/30 05:17:44;;;;;;;7.43;6.73;;;16.00;1.00;;;;;;5063924;28;21395;-77
2023/08/30 05:20:11;;;;;;;6.70;5.70;;;16.10;1.00;;;;;;5056494;27;20561;-78
2023/08/30 05:22:38;;;;;;;5.90;5.40;;;16.20;1.00;;;;;;5045064;28;20534;-77
2023/08/30 05:25:07;;;;;;;6.40;5.90;;;16.20;1.00;;;;;;5042503;28;20531;-78
2023/08/30 05:27:34;;;;;;;7.17;5.87;;;16.30;1.00;;;;;;5041385;28;20890;-79
2023/08/30 05:30:03;;;;;;;5.63;5.13;;;16.40;1.00;;;;;;5057563;28;20486;-77
2023/08/30 05:32:31;;;;;;;7.30;6.00;;;16.50;1.00;;;;;;5062800;27;20561;-79
2023/08/30 05:34:58;;;;;;;7.10;5.70;;;16.50;1.00;;;;;;5059744;28;20570;-78
2023/08/30 05:37:25;;;;;;;7.13;6.53;;;16.50;1.00;;;;;;5061869;27;20447;-78
2023/08/30 05:39:52;;;;;;;6.80;6.00;;;16.50;1.00;;;;;;5060317;28;20624;-78
2023/08/30 05:42:21;;;;;;;13.43;10.57;;;16.60;1.00;;;;;;5063545;28;20851;-77
2023/08/30 05:44:48;;;;;;;7.80;6.57;;;16.60;1.00;;;;;;5053209;28;20497;-78
2023/08/30 05:47:16;;;;;;;6.17;5.57;;;16.60;1.00;;;;;;5039872;28;20457;-79
2023/08/30 05:49:43;;;;;;;8.13;7.33;;;16.70;1.00;;;;;;5045132;28;20479;-79
2023/08/30 05:52:10;;;;;;;9.07;8.27;;;16.70;1.00;;;;;;5046344;28;20464;-81
2023/08/30 05:54:37;;;;;;;9.97;7.47;;;16.80;1.00;;;;;;5045279;28;20469;-78
2023/08/30 05:57:05;;;;;;;7.97;7.27;;;16.80;1.00;;;;;;5043857;28;20574;-78
2023/08/30 05:59:34;;;;;;;10.03;7.60;;;16.90;1.00;;;;;;5060788;28;20471;-77
2023/08/30 06:02:02;;;;;;;8.43;7.07;;;17.00;1.00;;;;;;5065839;28;20466;-80
2023/08/30 06:04:29;;;;;;;7.40;6.83;;;17.10;1.00;;;;;;5070975;28;20498;-80
2023/08/30 06:06:56;;;;;;;7.83;7.10;;;17.10;1.00;;;;;;5069576;27;20536;-80
2023/08/30 06:09:23;;;;;;;6.90;6.30;;;17.20;1.00;;;;;;5068460;28;20475;-77
2023/08/30 06:11:50;;;;;;;7.50;6.90;;;17.30;1.00;;;;;;5068196;28;20448;-79
2023/08/30 06:14:17;;;;;;;8.23;7.53;;;17.40;1.00;;;;;;5067114;28;20496;-78
2023/08/30 06:16:45;;;;;;;6.03;5.50;;;17.40;1.00;;;;;;5073318;28;20462;-78
2023/08/30 06:19:12;;;;;;;6.60;6.00;;;17.50;1.00;;;;;;5056469;28;20437;-78
2023/08/30 06:21:40;;;;;;;6.87;6.13;;;17.60;1.00;;;;;;5046087;28;20583;-78
2023/08/30 06:24:07;;;;;;;6.13;5.63;;;17.60;1.00;;;;;;5044535;28;20457;-76
2023/08/30 06:26:34;;;;;;;6.17;5.33;;;17.60;1.00;;;;;;5046537;28;20452;-78
2023/08/30 06:29:01;;;;;;;6.03;5.43;;;17.60;1.00;;;;;;5041826;28;20477;-77
2023/08/30 06:31:28;;;;;;;8.37;7.57;;;17.60;1.00;;;;;;5043413;28;20469;-78
2023/08/30 06:33:57;;;;;;;6.90;6.20;;;17.60;1.00;;;;;;5041177;28;20489;-79
2023/08/30 06:36:24;;;;;;;6.07;5.47;;;17.60;1.00;;;;;;5046541;28;20548;-79
2023/08/30 06:38:51;;;;;;;9.50;5.97;;;17.70;1.00;;;;;;5042384;28;20482;-80
2023/08/30 06:41:18;;;;;;;8.50;5.57;;;17.70;1.00;;;;;;5049137;28;20476;-78
2023/08/30 06:43:45;;;;;;;6.80;6.20;;;17.70;1.00;;;;;;5048730;28;20863;-78
2023/08/30 06:46:12;;;;;;;6.40;5.83;;;17.80;1.00;;;;;;5042994;28;20960;-78
2023/08/30 06:48:39;;;;;;;8.50;5.83;;;17.90;1.00;;;;;;5039922;28;20478;-79
2023/08/30 06:51:07;;;;;;;4.90;4.40;;;18.10;1.00;;;;;;5046134;28;20476;-78
2023/08/30 06:53:34;;;;;;;5.23;4.73;;;18.10;1.00;;;;;;5044331;28;20944;-80
2023/08/30 06:56:02;;;;;;;4.93;3.80;;;18.30;1.00;;;;;;5059803;28;20468;-78
2023/08/30 06:58:29;;;;;;;6.70;4.20;;;18.20;1.00;;;;;;5065499;28;20560;-78
2023/08/30 07:00:58;;;;;;;4.67;4.23;;;18.30;1.00;;;;;;5062820;28;20458;-77
2023/08/30 07:03:25;;;;;;;8.17;4.57;;;18.30;1.00;;;;;;5064322;28;20474;-77
2023/08/30 07:05:52;;;;;;;5.63;4.10;;;18.40;1.00;;;;;;5042017;28;21023;-78
2023/08/30 07:08:21;;;;;;;8.17;4.10;;;18.50;1.00;;;;;;5042545;28;20882;-79
2023/08/30 07:10:48;;;;;;;5.20;4.80;;;18.60;1.00;;;;;;5044258;28;20952;-77
2023/08/30 07:13:15;;;;;;;5.27;4.43;;;18.80;1.00;;;;;;5034788;28;20430;-79
2023/08/30 07:15:42;;;;;;;6.73;3.70;;;18.90;1.00;;;;;;5073136;28;21071;-76
2023/08/30 07:18:10;;;;;;;6.80;4.23;;;19.00;1.00;;;;;;5063969;27;20469;-78
2023/08/30 07:20:39;;;;;;;4.70;3.20;;;19.10;1.00;;;;;;5064548;28;20529;-80
2023/08/30 07:23:06;;;;;;;3.60;3.30;;;19.20;1.00;;;;;;5052834;28;21613;-79
2023/08/30 07:25:36;;;;;;;3.13;2.83;;;19.30;1.00;;;;;;5057089;28;20474;-80
2023/08/30 07:28:06;;;;;;;3.13;2.93;;;19.40;1.00;;;;;;5056722;27;21285;-79
2023/08/30 07:30:34;;;;;;;3.50;2.90;;;19.50;1.00;;;;;;5065819;28;20464;-80
2023/08/30 07:33:01;;;;;;;5.50;3.10;;;19.50;1.00;;;;;;5063796;28;20470;-80
2023/08/30 07:35:28;;;;;;;4.03;2.93;;;19.60;1.00;;;;;;5065699;28;20898;-80
2023/08/30 07:37:56;;;;;;;6.07;4.03;;;19.70;1.00;;;;;;5063292;28;20469;-79
2023/08/30 07:40:26;;;;;;;5.50;5.00;;;19.60;1.00;;;;;;5060518;28;20470;-80
2023/08/30 07:42:54;;;;;;;3.60;3.30;;;19.60;1.00;;;;;;5063406;28;20459;-77
2023/08/30 07:45:22;;;;;;;3.50;2.73;;;19.60;1.00;;;;;;5062876;28;20608;-79
2023/08/30 07:47:49;;;;;;;6.00;3.30;;;19.60;1.00;;;;;;5067296;28;21768;-80
2023/08/30 07:50:16;;;;;;;3.47;3.00;;;19.60;1.00;;;;;;5058074;28;20459;-81
2023/08/30 07:52:43;;;;;;;5.40;2.90;;;19.70;1.00;;;;;;5045731;28;20477;-79
2023/08/30 07:55:10;;;;;;;3.47;3.10;;;19.70;1.00;;;;;;5040626;28;21008;-78
2023/08/30 07:57:37;;;;;;;5.37;3.70;;;19.80;1.00;;;;;;5037993;28;20503;-78
2023/08/30 08:00:07;;;;;;;6.30;4.27;;;19.70;1.00;;;;;;5041804;28;20935;-78
2023/08/30 08:02:34;;;;;;;5.30;4.40;;;19.60;1.00;;;;;;5040601;28;20480;-78
2023/08/30 08:05:02;;;;;;;6.30;2.87;;;19.60;1.00;;;;;;5038671;28;20468;-77
2023/08/30 08:07:29;;;;;;;4.30;2.50;;;19.60;1.00;;;;;;5040519;28;20529;-79
2023/08/30 08:09:56;;;;;;;2.87;2.47;;;19.60;1.00;;;;;;5038774;28;20471;-80
2023/08/30 08:12:23;;;;;;;4.57;3.10;;;19.70;1.00;;;;;;5043695;28;20605;-79
2023/08/30 08:14:50;;;;;;;9.30;4.00;;;19.70;1.00;;;;;;5042230;27;20443;-79
2023/08/30 08:17:18;;;;;;;5.23;2.17;;;19.80;1.00;;;;;;5042479;28;20539;-79
2023/08/30 08:19:46;;;;;;;2.63;1.90;;;19.80;1.00;;;;;;5041213;28;20638;-78
2023/08/30 08:22:13;;;;;;;7.33;3.43;;;19.90;1.00;;;;;;5042724;28;20444;-78
2023/08/30 08:24:40;;;;;;;6.20;2.67;;;19.90;1.00;;;;;;5043419;28;20547;-79
2023/08/30 08:27:07;;;;;;;3.10;2.70;;;19.90;1.00;;;;;;5052654;28;20721;-79
2023/08/30 08:29:34;;;;;;;3.63;3.33;;;20.00;1.00;;;;;;5043801;28;20491;-78
2023/08/30 08:32:01;;;;;;;4.77;2.83;;;20.00;1.00;;;;;;5040122;28;20483;-78
2023/08/30 08:34:29;;;;;;;3.67;2.60;;;19.90;1.00;;;;;;5049403;28;20460;-80
2023/08/30 08:36:56;;;;;;;5.70;3.07;;;20.00;1.00;;;;;;5046087;28;20509;-79
2023/08/30 08:39:23;;;;;;;3.40;3.00;;;20.00;1.00;;;;;;5046282;28;20898;-79
2023/08/30 08:41:52;;;;;;;4.50;2.50;;;20.10;1.00;;;;;;5046881;28;20572;-79
2023/08/30 08:44:22;;;;;;;3.30;2.30;;;20.20;1.00;;;;;;5045790;28;20465;-77
2023/08/30 08:46:49;;;;;;;4.17;2.63;;;20.30;1.00;;;;;;5048576;28;20485;-77
2023/08/30 08:49:16;;;;;;;4.50;2.60;;;20.30;1.00;;;;;;5046494;28;20923;-80
2023/08/30 08:51:46;;;;;;;3.23;2.93;;;20.50;1.00;;;;;;5055146;28;20469;-79
2023/08/30 08:54:14;;;;;;;3.27;2.97;;;20.70;1.00;;;;;;5063150;28;20515;-79
2023/08/30 08:56:41;;;;;;;3.47;2.70;;;20.90;1.00;;;;;;5060639;28;20489;-79
2023/08/30 08:59:08;;;;;;;3.60;3.27;;;21.10;1.00;;;;;;5055861;27;20456;-80
2023/08/30 09:01:36;;;;;;;2.77;2.57;;;21.20;1.00;;;;;;5051991;28;20462;-81
2023/08/30 09:04:07;;;;;;;4.07;2.90;;;21.50;1.00;;;;;;5046613;28;20553;-79
2023/08/30 09:06:34;;;;;;;2.77;2.40;;;21.70;1.00;;;;;;5063460;28;20472;-79
2023/08/30 09:09:04;;;;;;;4.33;3.20;;;21.80;1.00;;;;;;5047909;28;20475;-79
2023/08/30 09:11:31;;;;;;;4.77;3.00;;;21.90;1.00;;;;;;5046243;28;20461;-80
2023/08/30 09:13:58;;;;;;;4.23;3.07;;;22.10;1.00;;;;;;5046064;28;20464;-77
2023/08/30 09:16:26;;;;;;;3.40;3.00;;;22.20;1.00;;;;;;5048991;28;20435;-77
2023/08/30 09:19:00;;;;;;;2.93;2.63;;;22.30;1.00;;;;;;5045904;28;20468;-78
2023/08/30 09:21:28;;;;;;;3.50;2.67;;;22.30;1.00;;;;;;5044960;28;21029;-77
2023/08/30 09:23:59;;;;;;;4.07;3.20;;;22.50;1.00;;;;;;5062661;27;20482;-80
2023/08/30 09:26:28;;;;;;;3.53;3.23;;;22.70;1.00;;;;;;5069043;28;21004;-81
2023/08/30 09:28:55;;;;;;;3.10;2.80;;;23.00;1.00;;;;;;5065875;28;21002;-79
2023/08/30 09:31:23;;;;;;;3.50;3.20;;;23.30;1.00;;;;;;5065099;28;20490;-79
2023/08/30 09:33:50;;;;;;;6.10;3.57;;;23.70;1.00;;;;;;5065825;28;20894;-80
2023/08/30 09:36:17;;;;;;;3.43;3.10;;;24.50;1.00;;;;;;5066295;28;20478;-82
2023/08/30 09:38:50;;;;;;;4.30;2.93;;;25.70;1.00;;;;;;5062110;28;20464;-80
2023/08/30 09:41:18;;;;;;;3.03;2.73;;;27.00;1.00;;;;;;5070775;28;20904;-78
2023/08/30 09:43:48;;;;;;;5.73;3.20;;;28.30;1.00;;;;;;5071432;27;20455;-81
2023/08/30 09:46:16;;;;;;;3.70;2.93;;;29.40;1.00;;;;;;5054432;28;20466;-79
2023/08/30 09:48:43;;;;;;;3.50;3.20;;;29.70;1.00;;;;;;5051623;28;20472;-80
2023/08/30 09:51:14;;;;;;;2.57;2.37;;;29.80;1.00;;;;;;5048091;28;20568;-83
2023/08/30 09:53:45;;;;;;;3.10;2.80;;;29.40;1.00;;;;;;5052862;28;20532;-80
2023/08/30 09:56:15;;;;;;;2.80;2.60;;;29.30;1.00;;;;;;5065451;28;20896;-80
2023/08/30 09:58:43;;;;;;;2.80;2.60;;;28.90;1.00;;;;;;5071941;28;20508;-82
2023/08/30 10:01:12;;;;;;;5.50;4.40;;;28.20;1.00;;;;;;5069150;28;20564;-79
2023/08/30 10:03:40;;;;;;;3.23;2.40;;;27.50;1.00;;;;;;5070968;28;20924;-80
2023/08/30 10:06:07;;;;;;;2.60;2.20;;;27.80;1.00;;;;;;5063886;28;20453;-81
2023/08/30 10:08:36;;;;;;;2.87;2.63;;;28.50;1.00;;;;;;5064223;28;20460;-81
2023/08/30 10:11:04;;;;;;;5.20;4.80;;;28.60;1.00;;;;;;5061858;28;20449;-80
2023/08/30 10:13:32;;;;;;;5.80;2.67;;;28.10;1.00;;;;;;5046436;28;20470;-81
2023/08/30 10:16:04;;;;;;;4.60;2.13;;;28.40;1.00;;;;;;5042059;28;20920;-79
2023/08/30 10:18:34;;;;;;;3.00;2.57;;;28.40;1.00;;;;;;5058592;28;21015;-82
2023/08/30 10:21:04;;;;;;;5.17;2.63;;;28.10;1.00;;;;;;5046282;28;20546;-79
2023/08/30 10:23:32;;;;;;;3.23;2.10;;;28.50;1.00;;;;;;5043534;28;20464;-78
2023/08/30 10:26:00;;;;;;;2.27;2.07;;;29.20;1.00;;;;;;5047697;28;20466;-80
2023/08/30 10:28:29;;;;;;;2.27;2.00;;;30.10;1.00;;;;;;5051013;28;20478;-80
2023/08/30 10:30:56;;;;;;;2.53;1.97;;;29.60;1.00;;;;;;5046358;28;20558;-80
2023/08/30 10:33:25;;;;;;;1.63;1.53;;;29.50;1.00;;;;;;5044411;28;20520;-79
2023/08/30 10:35:55;;;;;;;2.47;1.87;;;29.50;1.00;;;;;;5043720;28;20538;-79
2023/08/30 10:38:27;;;;;;;2.27;2.07;;;29.40;1.00;;;;;;5049308;28;20464;-79
2023/08/30 10:40:54;;;;;;;2.23;2.03;;;29.20;1.00;;;;;;5053777;28;20451;-80
2023/08/30 10:43:31;;;;;;;2.83;1.80;;;28.60;1.00;;;;;;5066313;28;20455;-78
2023/08/30 10:46:02;;;;;;;3.50;2.70;;;28.10;1.00;;;;;;5063626;28;20928;-78
2023/08/30 10:48:40;;;;;;;2.60;2.40;;;27.70;1.00;;;;;;5044451;28;20957;-79
2023/08/30 10:51:23;;;;;;;8.13;3.20;;;27.60;1.00;;;;;;5044145;28;20445;-77
2023/08/30 10:53:59;;;;;;;2.67;2.47;;;27.50;1.00;;;;;;5058514;28;20537;-79
2023/08/30 10:56:30;;;;;;;4.90;2.33;;;27.10;1.00;;;;;;5062742;28;20466;-78
2023/08/30 10:58:58;;;;;;;3.77;3.10;;;26.90;1.00;;;;;;5060292;28;20469;-78
2023/08/30 11:01:26;;;;;;;3.37;3.03;;;26.90;1.00;;;;;;5063536;28;20469;-80
2023/08/30 11:03:54;;;;;;;4.60;2.40;;;27.00;1.00;;;;;;5067743;28;20545;-80
2023/08/30 11:06:22;;;;;;;3.37;3.00;;;27.30;1.00;;;;;;5064165;27;20471;-77
2023/08/30 11:08:50;;;;;;;2.87;2.57;;;27.10;1.00;;;;;;5063265;28;20544;-81
2023/08/30 11:11:17;;;;;;;3.30;3.00;;;26.50;1.00;;;;;;5065474;28;20490;-81
2023/08/30 11:13:45;;;;;;;5.20;4.70;;;26.50;1.00;;;;;;5068835;28;20496;-80
2023/08/30 11:16:28;;;;;;;3.77;3.23;;;26.40;1.00;;;;;;5065116;28;20460;-80
2023/08/30 11:18:54;;;;;;;3.60;3.30;;;26.00;1.00;;;;;;5057027;28;20452;-81
2023/08/30 11:21:23;;;;;;;4.57;3.10;;;25.50;1.00;;;;;;5040426;28;20464;-81
2023/08/30 11:23:50;;;;;;;4.23;3.07;;;25.10;1.00;;;;;;5044712;28;20474;-79
2023/08/30 11:26:17;;;;;;;3.00;2.80;;;24.70;1.00;;;;;;5063940;28;21619;-79
2023/08/30 11:28:48;;;;;;;3.00;2.70;;;24.50;1.00;;;;;;5045686;28;20554;-80
2023/08/30 11:31:19;;;;;;;4.80;3.00;;;24.40;1.00;;;;;;5046137;28;20460;-79
2023/08/30 11:33:52;;;;;;;5.43;3.40;;;24.70;1.00;;;;;;5047455;28;20949;-81
2023/08/30 11:36:22;;;;;;;2.27;2.10;;;25.00;1.00;;;;;;5043740;28;20554;-79
2023/08/30 11:38:50;;;;;;;2.83;2.63;;;25.10;1.00;;;;;;5044280;28;20465;-79
2023/08/30 11:41:17;;;;;;;2.57;2.37;;;24.90;1.00;;;;;;5046296;28;20551;-79
2023/08/30 11:43:46;;;;;;;2.30;2.10;;;25.40;1.00;;;;;;5048429;28;20545;-78
2023/08/30 11:46:12;;;;;;;4.20;2.20;;;26.10;1.00;;;;;;5055265;28;20470;-79
2023/08/30 11:48:40;;;;;;;4.30;3.20;;;26.50;1.00;;;;;;5060661;28;20805;-82
2023/08/30 11:51:08;;;;;;;2.90;2.70;;;26.90;1.00;;;;;;5064948;27;21028;-80
2023/08/30 11:53:36;;;;;;;3.77;3.17;;;26.80;1.00;;;;;;5063543;28;20462;-81
2023/08/30 11:56:06;;;;;;;2.93;1.87;;;26.60;1.00;;;;;;5068773;28;20549;-81
2023/08/30 11:58:34;;;;;;;3.57;2.60;;;26.20;1.00;;;;;;5069395;28;20458;-83
2023/08/30 12:01:02;;;;;;;3.03;2.67;;;25.80;1.00;;;;;;5049640;28;20450;-81
2023/08/30 12:03:30;;;;;;;2.43;2.23;;;25.50;1.00;;;;;;5048815;28;20461;-80
2023/08/30 12:05:58;;;;;;;4.03;2.80;;;25.20;1.00;;;;;;5050490;28;21031;-82
2023/08/30 12:08:26;;;;;;;3.90;2.80;;;25.10;1.00;;;;;;5055855;28;20543;-81
2023/08/30 12:10:54;;;;;;;3.77;3.37;;;24.80;1.00;;;;;;5055724;28;21428;-79
2023/08/30 12:13:24;;;;;;;2.37;2.17;;;24.70;1.00;;;;;;5050975;28;20509;-79
2023/08/30 12:15:51;;;;;;;2.83;2.63;;;24.40;1.00;;;;;;5070143;28;20581;-79
2023/08/30 12:18:23;;;;;;;3.13;2.57;;;24.20;1.00;;;;;;5069225;28;20485;-81
2023/08/30 12:20:59;;;;;;;2.57;2.37;;;24.20;1.00;;;;;;5071123;28;20473;-81
2023/08/30 12:23:27;;;;;;;3.30;2.43;;;24.20;1.00;;;;;;5074731;28;20458;-82
2023/08/30 12:26:05;;;;;;;7.40;6.70;;;24.40;1.00;;;;;;5092437;27;20473;-83
2023/08/30 12:28:45;;;;;;;2.93;2.53;;;24.50;1.00;;;;;;5091979;27;20417;-82
2023/08/30 12:31:12;;;;;;;2.90;2.30;;;24.50;1.00;;;;;;5069202;28;20554;-78
2023/08/30 12:33:46;;;;;;;2.43;2.23;;;24.50;1.00;;;;;;5063461;28;20428;-80
2023/08/30 12:36:14;;;;;;;2.13;2.00;;;24.60;1.00;;;;;;5075598;28;20507;-78
2023/08/30 12:38:41;;;;;;;2.73;2.43;;;24.40;1.00;;;;;;5078161;28;20567;-80
2023/08/30 12:41:08;;;;;;;2.50;2.03;;;24.30;1.00;;;;;;5072008;28;20424;-80
2023/08/30 12:43:37;;;;;;;3.17;2.20;;;24.20;1.00;;;;;;5075277;28;20545;-81
2023/08/30 12:46:07;;;;;;;3.30;2.27;;;24.00;1.00;;;;;;5064581;28;20468;-82
2023/08/30 12:48:34;;;;;;;2.60;2.30;;;23.80;1.00;;;;;;5067661;28;20455;-81
2023/08/30 12:51:01;;;;;;;5.50;3.20;;;23.70;1.00;;;;;;5062309;27;20440;-81
2023/08/30 12:53:28;;;;;;;4.33;1.90;;;23.50;1.00;;;;;;5081449;28;20478;-82
2023/08/30 12:55:56;;;;;;;3.10;1.87;;;23.30;1.00;;;;;;5041751;28;20476;-82
2023/08/30 12:58:23;;;;;;;2.10;1.70;;;23.10;1.00;;;;;;5052878;28;20485;-83
2023/08/30 13:00:52;;;;;;;2.60;2.40;;;23.00;1.00;;;;;;5051732;28;20552;-83
2023/08/30 13:03:19;;;;;;;3.83;2.40;;;22.90;1.00;;;;;;5069323;27;20468;-83